Terminal Aerodrome Forecast
Issued by NWS

Home | Current Version | Previous Version | Text Only | Print | Product List | Glossary On
Versions: 1 2 3 4 5 6
000
FTUS46 KSEW 271100
TAFPAE
TAF
KPAE 271130Z 2712/2812 16009KT 6SM -RA BR OVC012
     FM271300 17010KT 6SM -RA BR OVC010
      TEMPO 2714/2718 1SM -RA BR OVC005
     FM271800 19012G18KT 4SM -RA BR SCT008 OVC016
     FM280000 30008KT P6SM -SHRA SCT013 BKN023 OVC035
     FM281000 VRB05KT P6SM OVC020=

USA.gov is the U.S. government's official web portal to all federal, state and local government web resources and services.